createdAt,value
2022-12-08T00:01:12.744Z,22.95
2022-12-08T00:03:39.767Z,26.25
2022-12-08T00:06:25.901Z,26.33
2022-12-08T00:11:39.130Z,27.48
2022-12-08T00:14:05.884Z,26.35
2022-12-08T00:16:33.000Z,26.05
2022-12-08T00:18:59.814Z,24.98
2022-12-08T00:21:26.852Z,22.08
2022-12-08T00:23:55.373Z,24.30
2022-12-08T00:26:22.444Z,23.70
2022-12-08T00:28:49.191Z,20.50
2022-12-08T00:31:16.285Z,23.88
2022-12-08T00:33:43.050Z,19.58
2022-12-08T00:36:13.279Z,17.70
2022-12-08T00:38:40.224Z,22.08
2022-12-08T00:41:08.785Z,20.05
2022-12-08T00:43:35.519Z,20.48
2022-12-08T00:46:02.678Z,21.02
2022-12-08T00:48:29.445Z,20.98
2022-12-08T00:50:56.514Z,20.98
2022-12-08T00:53:23.292Z,17.20
2022-12-08T00:55:50.300Z,18.98
2022-12-08T00:58:17.019Z,17.85
2022-12-08T01:00:44.251Z,20.08
2022-12-08T01:03:11.647Z,19.27
2022-12-08T01:05:39.082Z,18.95
2022-12-08T01:08:06.731Z,21.88
2022-12-08T01:10:37.475Z,16.67
2022-12-08T01:13:04.319Z,17.42
2022-12-08T01:15:31.394Z,18.58
2022-12-08T01:17:58.147Z,18.02
2022-12-08T01:20:25.209Z,16.65
2022-12-08T01:22:51.948Z,15.98
2022-12-08T01:25:19.102Z,15.70
2022-12-08T01:27:45.806Z,17.40
2022-12-08T01:30:13.339Z,13.20
2022-12-08T01:32:40.091Z,19.15
2022-12-08T01:35:07.426Z,17.20
2022-12-08T01:37:34.140Z,15.27
2022-12-08T01:40:01.666Z,15.98
2022-12-08T01:42:30.036Z,14.48
2022-12-08T01:45:02.737Z,18.08
2022-12-08T01:47:36.542Z,16.10
2022-12-08T01:50:05.194Z,17.23
2022-12-08T01:53:09.168Z,13.93
2022-12-08T01:55:57.553Z,14.98
2022-12-08T01:58:32.618Z,14.27
2022-12-08T02:03:38.769Z,13.35
2022-12-08T02:06:06.147Z,12.90
2022-12-08T02:08:33.020Z,15.80
2022-12-08T02:11:00.094Z,14.27
2022-12-08T02:13:26.886Z,15.25
2022-12-08T02:16:00.077Z,17.55
2022-12-08T02:18:42.011Z,14.73
2022-12-08T02:21:09.467Z,21.73
2022-12-08T02:23:48.371Z,13.18
2022-12-08T02:26:51.798Z,15.13
2022-12-08T02:29:33.859Z,15.50
2022-12-08T02:32:19.526Z,15.88
2022-12-08T02:35:15.234Z,17.30
2022-12-08T02:37:59.284Z,15.95
2022-12-08T02:40:32.493Z,16.88
2022-12-08T02:43:02.623Z,13.90
2022-12-08T02:45:35.025Z,16.88
2022-12-08T02:48:02.098Z,13.70
2022-12-08T02:50:29.008Z,16.40
2022-12-08T02:52:56.054Z,18.40
2022-12-08T02:56:15.569Z,14.25
2022-12-08T02:59:24.133Z,19.30
2022-12-08T03:02:14.631Z,16.02
2022-12-08T03:04:41.730Z,18.02
2022-12-08T03:07:22.156Z,19.85
2022-12-08T03:09:52.807Z,17.27
2022-12-08T03:12:39.958Z,18.67
2022-12-08T03:15:12.521Z,16.73
2022-12-08T03:17:39.496Z,18.30
2022-12-08T03:20:09.760Z,16.92
2022-12-08T03:22:36.472Z,15.60
2022-12-08T03:25:03.718Z,17.08
2022-12-08T03:27:30.532Z,15.88
2022-12-08T03:29:58.385Z,19.55
2022-12-08T03:32:51.773Z,16.40
2022-12-08T03:35:22.767Z,15.77
2022-12-08T03:37:49.472Z,15.75
2022-12-08T03:40:18.729Z,16.30
2022-12-08T03:42:45.500Z,18.75
2022-12-08T03:45:12.576Z,17.17
2022-12-08T03:47:39.345Z,17.13
2022-12-08T03:50:07.073Z,14.70
2022-12-08T03:52:34.022Z,13.35
2022-12-08T03:55:01.029Z,15.70
2022-12-08T03:57:27.748Z,18.73
2022-12-08T03:59:54.737Z,15.07
2022-12-08T04:02:21.553Z,17.40
2022-12-08T04:04:48.871Z,16.48
2022-12-08T04:07:15.552Z,14.98
2022-12-08T04:09:42.695Z,14.98
2022-12-08T04:12:09.481Z,16.40
2022-12-08T04:14:36.535Z,17.15
2022-12-08T04:17:03.375Z,19.67
2022-12-08T04:19:30.510Z,14.80
2022-12-08T04:21:57.301Z,15.63
2022-12-08T04:24:24.308Z,14.05
2022-12-08T04:26:51.091Z,14.95
2022-12-08T04:29:18.284Z,14.07
2022-12-08T04:31:45.117Z,13.85
2022-12-08T04:34:12.303Z,14.52
2022-12-08T04:36:39.024Z,13.35
2022-12-08T04:39:06.099Z,15.65
2022-12-08T04:41:33.071Z,18.05
2022-12-08T04:44:00.084Z,17.10
2022-12-08T04:46:26.984Z,16.50
2022-12-08T04:48:54.052Z,15.77
2022-12-08T04:51:21.225Z,16.98
2022-12-08T04:53:48.307Z,12.70
2022-12-08T04:56:15.760Z,15.10
2022-12-08T04:58:43.119Z,15.00
2022-12-08T05:01:09.920Z,14.77
2022-12-08T05:03:37.035Z,13.50
2022-12-08T05:06:03.978Z,15.10
2022-12-08T05:08:31.339Z,18.92
2022-12-08T05:11:05.240Z,15.18
2022-12-08T05:13:32.404Z,15.63
2022-12-08T05:16:04.224Z,16.08
2022-12-08T05:18:31.428Z,14.38
2022-12-08T05:20:58.156Z,16.88
2022-12-08T05:23:25.310Z,14.82
2022-12-08T05:25:52.050Z,14.70
2022-12-08T05:28:40.791Z,17.20
2022-12-08T05:31:05.986Z,19.63
2022-12-08T05:33:33.058Z,15.13
2022-12-08T05:35:59.767Z,17.85
2022-12-08T05:38:26.826Z,19.60
2022-12-08T05:40:53.522Z,16.83
2022-12-08T05:43:20.781Z,18.00
2022-12-08T05:45:47.586Z,18.42
2022-12-08T05:48:14.658Z,17.88
2022-12-08T05:50:48.522Z,18.13
2022-12-08T05:53:16.578Z,17.58
2022-12-08T05:55:43.431Z,17.40
2022-12-08T05:58:12.790Z,17.10
2022-12-08T06:00:39.858Z,18.00
2022-12-08T06:03:06.956Z,17.83
2022-12-08T06:05:34.654Z,18.85
2022-12-08T06:08:02.006Z,18.17
2022-12-08T06:10:28.954Z,20.73
2022-12-08T06:12:55.988Z,20.60
2022-12-08T06:15:22.743Z,18.77
2022-12-08T06:17:49.752Z,17.95
2022-12-08T06:20:16.542Z,18.70
2022-12-08T06:22:43.603Z,17.02
2022-12-08T06:25:10.510Z,17.80
2022-12-08T06:27:37.598Z,17.98
2022-12-08T06:30:04.832Z,21.25
2022-12-08T06:32:32.040Z,20.60
2022-12-08T06:34:58.822Z,21.20
2022-12-08T06:37:25.814Z,21.30
2022-12-08T06:39:52.588Z,20.25
2022-12-08T06:42:38.250Z,20.95
2022-12-08T06:45:05.490Z,19.95
2022-12-08T06:47:32.505Z,22.63
2022-12-08T06:49:59.240Z,25.15
2022-12-08T06:52:26.285Z,19.85
2022-12-08T06:54:53.002Z,19.70
2022-12-08T06:57:20.045Z,20.48
2022-12-08T06:59:46.814Z,18.40
2022-12-08T07:02:13.924Z,23.30
2022-12-08T07:04:40.724Z,23.63
2022-12-08T07:07:07.776Z,27.00
2022-12-08T07:09:34.665Z,22.80
2022-12-08T07:12:01.692Z,24.52
2022-12-08T07:14:28.592Z,25.10
2022-12-08T07:16:55.693Z,22.67
2022-12-08T07:19:22.536Z,25.25
2022-12-08T07:21:49.514Z,24.08
2022-12-08T07:24:16.262Z,23.00
2022-12-08T07:26:43.338Z,26.48
2022-12-08T07:29:10.814Z,23.65
2022-12-08T07:31:37.853Z,25.67
2022-12-08T07:34:04.597Z,22.13
2022-12-08T07:36:32.799Z,25.27
2022-12-08T07:38:59.552Z,23.08
2022-12-08T07:41:26.654Z,23.85
2022-12-08T07:43:53.908Z,26.23
2022-12-08T07:46:22.041Z,24.85
2022-12-08T07:48:48.892Z,27.00
2022-12-08T07:51:16.084Z,27.48
2022-12-08T07:53:47.213Z,25.08
2022-12-08T07:56:17.154Z,24.27
2022-12-08T07:58:45.926Z,27.40
2022-12-08T08:01:23.436Z,29.55
2022-12-08T08:03:50.409Z,24.30
2022-12-08T08:06:17.445Z,26.98
2022-12-08T08:08:44.197Z,27.02
2022-12-08T08:11:18.913Z,29.80
2022-12-08T08:13:47.905Z,25.90
2022-12-08T08:16:15.072Z,30.45
2022-12-08T08:18:41.948Z,27.98
2022-12-08T08:21:43.074Z,27.42
2022-12-08T08:23:57.863Z,27.58
2022-12-08T08:26:24.902Z,28.38
2022-12-08T08:28:51.660Z,28.83
2022-12-08T08:31:18.723Z,29.20
2022-12-08T08:33:45.639Z,27.13
2022-12-08T08:36:12.851Z,28.00
2022-12-08T08:38:40.122Z,27.55
2022-12-08T08:41:09.133Z,27.38
2022-12-08T08:43:38.549Z,29.60
2022-12-08T08:46:06.494Z,26.80
2022-12-08T08:48:33.460Z,29.08
2022-12-08T08:51:07.257Z,27.23
2022-12-08T08:53:34.006Z,29.17
2022-12-08T08:56:02.907Z,28.33
2022-12-08T08:58:29.855Z,30.77
2022-12-08T09:00:56.852Z,30.23
2022-12-08T09:03:23.601Z,27.77
2022-12-08T09:05:50.792Z,27.75
2022-12-08T09:08:17.730Z,28.05
2022-12-08T09:10:44.905Z,27.27
2022-12-08T09:13:11.679Z,30.25
2022-12-08T09:15:38.848Z,23.50
2022-12-08T09:18:06.836Z,29.67
2022-12-08T09:20:34.777Z,25.45
2022-12-08T09:23:01.691Z,24.05
2022-12-08T09:25:28.962Z,25.65
2022-12-08T09:27:55.771Z,28.38
2022-12-08T09:30:22.954Z,25.98
2022-12-08T09:32:49.781Z,26.90
2022-12-08T09:35:16.819Z,27.25
2022-12-08T09:37:43.559Z,26.63
2022-12-08T09:40:11.976Z,27.38
2022-12-08T09:42:44.820Z,30.35
2022-12-08T09:45:12.616Z,23.67
2022-12-08T09:48:03.284Z,28.25
2022-12-08T09:50:45.719Z,26.48
2022-12-08T09:53:14.106Z,28.83
2022-12-08T09:55:49.894Z,27.70
2022-12-08T09:58:47.575Z,27.80
2022-12-08T10:01:14.733Z,27.98
2022-12-08T10:03:41.483Z,27.88
2022-12-08T10:06:40.811Z,24.98
2022-12-08T10:09:25.279Z,22.88
2022-12-08T10:12:04.586Z,24.83
2022-12-08T10:14:41.286Z,23.90
2022-12-08T10:17:18.210Z,22.55
2022-12-08T10:19:45.645Z,23.95
2022-12-08T10:22:22.211Z,23.33
2022-12-08T10:25:04.542Z,26.00
2022-12-08T10:27:32.758Z,23.20
2022-12-08T10:29:59.488Z,22.23
2022-12-08T10:32:29.466Z,24.02
2022-12-08T10:35:07.104Z,25.83
2022-12-08T10:37:34.439Z,21.92
2022-12-08T10:40:16.340Z,24.33
2022-12-08T10:42:47.610Z,21.70
2022-12-08T10:45:23.205Z,24.88
2022-12-08T10:47:56.706Z,19.80
2022-12-08T10:50:31.402Z,21.77
2022-12-08T10:53:48.013Z,23.10
2022-12-08T10:56:15.574Z,22.00
2022-12-08T10:58:46.413Z,22.77
2022-12-08T11:01:13.866Z,21.60
2022-12-08T11:03:45.302Z,20.17
2022-12-08T11:06:15.310Z,23.55
2022-12-08T11:08:50.863Z,20.50
2022-12-08T11:13:44.721Z,18.65
2022-12-08T11:16:13.422Z,21.75
2022-12-08T11:18:42.292Z,18.95
2022-12-08T11:21:13.594Z,21.17
2022-12-08T11:23:41.429Z,20.63
2022-12-08T11:26:30.006Z,22.25
2022-12-08T11:28:57.182Z,20.90
2022-12-08T11:31:26.942Z,22.52
2022-12-08T11:33:54.171Z,22.85
2022-12-08T11:36:21.709Z,21.60
2022-12-08T11:38:49.317Z,23.42
2022-12-08T11:41:21.226Z,23.65
2022-12-08T11:43:56.038Z,23.63
2022-12-08T11:46:32.419Z,23.50
2022-12-08T11:49:06.237Z,20.50
2022-12-08T11:51:56.880Z,20.73
2022-12-08T11:54:30.208Z,21.45
2022-12-08T11:56:58.520Z,22.17
2022-12-08T11:59:39.584Z,23.17
2022-12-08T12:02:06.476Z,24.27
2022-12-08T12:04:37.460Z,21.17
2022-12-08T12:07:13.252Z,21.10
2022-12-08T12:10:34.048Z,20.40
2022-12-08T12:13:31.661Z,21.00
2022-12-08T12:16:01.496Z,23.55
2022-12-08T12:18:46.433Z,23.00
2022-12-08T12:21:26.013Z,19.33
2022-12-08T12:24:28.418Z,21.77
2022-12-08T12:27:08.069Z,20.33
2022-12-08T12:29:36.088Z,25.77
2022-12-08T12:32:07.941Z,21.55
2022-12-08T12:34:39.125Z,20.05
2022-12-08T12:37:14.729Z,20.10
2022-12-08T12:42:46.037Z,22.80
2022-12-08T12:45:25.563Z,20.92
2022-12-08T12:47:56.933Z,19.33
2022-12-08T12:50:38.845Z,20.25
2022-12-08T12:53:12.308Z,21.80
2022-12-08T12:55:46.557Z,21.15
2022-12-08T12:58:32.518Z,21.05
2022-12-08T13:01:12.721Z,24.25
2022-12-08T13:03:45.639Z,24.25
2022-12-08T13:06:14.878Z,20.48
2022-12-08T13:08:50.235Z,22.08
2022-12-08T13:11:16.951Z,19.00
2022-12-08T13:13:56.912Z,19.85
2022-12-08T13:16:27.397Z,23.08
2022-12-08T13:19:03.925Z,23.63
2022-12-08T13:21:36.059Z,21.67
2022-12-08T13:24:30.701Z,18.13
2022-12-08T13:27:03.524Z,17.88
2022-12-08T13:29:34.343Z,20.40
2022-12-08T13:32:07.131Z,18.13
2022-12-08T13:34:50.019Z,19.10
2022-12-08T13:37:31.246Z,17.42
2022-12-08T13:40:01.576Z,18.98
2022-12-08T13:42:36.318Z,20.27
2022-12-08T13:49:03.372Z,17.92
2022-12-08T13:57:11.446Z,15.73
2022-12-08T13:59:43.279Z,18.13
2022-12-08T14:02:19.008Z,20.27
2022-12-08T14:05:16.821Z,20.48
2022-12-08T14:07:34.394Z,20.67
2022-12-08T14:10:03.672Z,21.88
2022-12-08T14:12:30.750Z,19.17
2022-12-08T14:15:04.369Z,17.85
2022-12-08T14:17:32.522Z,17.70
2022-12-08T14:20:02.272Z,20.73
2022-12-08T14:22:36.496Z,27.58
2022-12-08T14:25:04.292Z,27.80
2022-12-08T14:27:35.942Z,29.65
2022-12-08T14:30:16.251Z,30.75
2022-12-08T14:32:45.163Z,31.23
2022-12-08T14:35:19.682Z,34.05
2022-12-08T14:37:51.652Z,30.60
2022-12-08T14:40:22.799Z,36.28
2022-12-08T14:42:53.078Z,34.63
2022-12-08T14:45:20.030Z,36.13
2022-12-08T14:47:48.561Z,38.45
2022-12-08T14:50:38.746Z,41.38
2022-12-08T14:53:14.448Z,42.20
2022-12-08T14:58:22.162Z,55.53
2022-12-08T15:00:49.354Z,58.30
2022-12-08T15:03:19.329Z,65.32
2022-12-08T15:05:46.051Z,70.05
2022-12-08T15:08:13.155Z,70.18
2022-12-08T15:10:40.038Z,70.90
2022-12-08T15:13:09.966Z,81.43
2022-12-08T15:15:52.836Z,80.13
2022-12-08T15:18:19.972Z,82.25
2022-12-08T15:20:53.860Z,81.15
2022-12-08T15:23:32.504Z,81.70
2022-12-08T15:25:59.264Z,79.75
2022-12-08T15:28:30.004Z,82.20
2022-12-08T15:30:57.739Z,77.43
2022-12-08T15:33:25.022Z,73.05
2022-12-08T15:35:51.817Z,71.25
2022-12-08T15:38:24.938Z,75.05
2022-12-08T15:40:52.666Z,71.65
2022-12-08T15:43:20.074Z,71.10
2022-12-08T15:45:57.846Z,69.10
2022-12-08T15:48:28.077Z,69.15
2022-12-08T15:50:54.981Z,62.35
2022-12-08T15:53:22.216Z,69.28
2022-12-08T15:56:18.442Z,63.45
2022-12-08T16:01:23.113Z,60.33
2022-12-08T16:09:36.396Z,71.75
2022-12-08T16:12:21.873Z,75.15
2022-12-08T16:17:36.242Z,75.47
2022-12-08T16:20:05.137Z,76.88
2022-12-08T16:25:21.336Z,74.97
2022-12-08T16:28:23.305Z,76.10
2022-12-08T16:30:42.551Z,84.97
2022-12-08T16:33:10.480Z,81.00
2022-12-08T16:35:37.580Z,78.57
2022-12-08T16:38:04.637Z,87.90
2022-12-08T16:40:31.769Z,80.55
2022-12-08T16:42:58.548Z,90.88
2022-12-08T16:45:27.977Z,81.18
2022-12-08T16:47:59.061Z,82.25
2022-12-08T16:50:27.067Z,85.45
2022-12-08T16:53:12.470Z,85.15
2022-12-08T16:58:06.265Z,79.63
2022-12-08T17:00:37.121Z,85.55
2022-12-08T17:03:10.761Z,79.35
2022-12-08T17:05:39.750Z,78.45
2022-12-08T17:08:06.631Z,86.13
2022-12-08T17:10:38.520Z,76.78
2022-12-08T17:13:05.271Z,80.60
2022-12-08T17:15:32.347Z,77.57
2022-12-08T17:17:59.132Z,80.63
2022-12-08T17:20:27.824Z,79.35
2022-12-08T17:22:58.199Z,77.78
2022-12-08T17:25:28.307Z,78.00
2022-12-08T17:27:56.335Z,76.07
2022-12-08T17:30:23.533Z,79.50
2022-12-08T17:32:50.315Z,73.60
2022-12-08T17:35:17.448Z,72.47
2022-12-08T17:37:44.212Z,76.10
2022-12-08T17:40:11.582Z,78.45
2022-12-08T17:42:38.778Z,77.07
2022-12-08T17:45:07.290Z,80.38
2022-12-08T17:47:34.354Z,71.57
2022-12-08T17:50:01.820Z,76.13
2022-12-08T17:52:28.595Z,81.13
2022-12-08T17:54:55.784Z,77.88
2022-12-08T17:57:22.559Z,80.88
2022-12-08T17:59:49.678Z,81.10
2022-12-08T18:02:16.515Z,77.70
2022-12-08T18:04:43.633Z,85.93
2022-12-08T18:07:10.426Z,84.80
2022-12-08T18:09:37.608Z,91.40
2022-12-08T18:12:04.622Z,88.03
2022-12-08T18:14:31.847Z,96.60
2022-12-08T18:16:58.748Z,82.47
2022-12-08T18:19:26.345Z,80.72
2022-12-08T18:21:53.091Z,86.45
2022-12-08T18:24:22.226Z,83.22
2022-12-08T18:26:49.408Z,81.00
2022-12-08T18:29:16.476Z,85.40
2022-12-08T18:31:43.248Z,79.38
2022-12-08T18:34:10.270Z,78.70
2022-12-08T18:36:37.042Z,81.75
2022-12-08T18:39:08.905Z,82.05
2022-12-08T18:41:37.657Z,79.57
2022-12-08T18:44:04.748Z,84.70
2022-12-08T18:46:31.608Z,80.82
2022-12-08T18:48:59.492Z,84.45
2022-12-08T18:51:26.362Z,79.40
2022-12-08T18:53:53.411Z,82.05
2022-12-08T18:56:30.683Z,81.93
2022-12-08T18:59:03.283Z,84.85
2022-12-08T19:01:32.106Z,82.10
2022-12-08T19:04:27.400Z,85.05
2022-12-08T19:06:51.678Z,80.65
2022-12-08T19:09:18.801Z,87.57
2022-12-08T19:11:45.588Z,89.22
2022-12-08T19:14:12.704Z,82.47
2022-12-08T19:16:39.439Z,82.38
2022-12-08T19:19:06.627Z,82.47
2022-12-08T19:21:33.447Z,78.88
2022-12-08T19:24:00.536Z,79.13
2022-12-08T19:26:27.957Z,82.32
2022-12-08T19:28:55.032Z,86.10
2022-12-08T19:31:21.926Z,84.72
2022-12-08T19:33:49.115Z,85.05
2022-12-08T19:36:17.967Z,88.03
2022-12-08T19:39:03.953Z,86.03
2022-12-08T19:41:49.336Z,87.63
2022-12-08T19:44:36.153Z,86.85
2022-12-08T19:47:03.680Z,92.00
2022-12-08T19:49:30.906Z,93.97
2022-12-08T19:51:57.899Z,90.22
2022-12-08T19:54:24.906Z,87.30
2022-12-08T19:56:51.662Z,84.72
2022-12-08T19:59:19.282Z,81.35
2022-12-08T20:01:48.105Z,89.43
2022-12-08T20:04:15.505Z,87.93
2022-12-08T20:06:42.773Z,84.88
2022-12-08T20:09:10.527Z,91.03
2022-12-08T20:11:37.910Z,84.57
2022-12-08T20:14:05.167Z,85.63
2022-12-08T20:16:32.150Z,84.88
2022-12-08T20:18:59.614Z,92.63
2022-12-08T20:21:26.478Z,94.15
2022-12-08T20:23:53.696Z,87.25
2022-12-08T20:26:21.420Z,90.75
2022-12-08T20:28:48.750Z,86.00
2022-12-08T20:31:19.849Z,85.65
2022-12-08T20:33:47.092Z,87.85
2022-12-08T20:36:17.526Z,85.88
2022-12-08T20:38:45.776Z,84.13
2022-12-08T20:41:12.759Z,85.15
2022-12-08T20:43:39.801Z,82.10
2022-12-08T20:46:07.517Z,83.18
2022-12-08T20:48:34.838Z,84.90
2022-12-08T20:51:01.803Z,81.45
2022-12-08T20:53:29.005Z,78.15
2022-12-08T20:55:55.927Z,84.00
2022-12-08T20:58:23.216Z,81.80
2022-12-08T21:00:50.203Z,82.70
2022-12-08T21:03:18.679Z,81.20
2022-12-08T21:05:52.481Z,82.30
2022-12-08T21:08:19.919Z,82.57
2022-12-08T21:10:53.463Z,82.28
2022-12-08T21:13:20.912Z,83.25
2022-12-08T21:15:47.908Z,76.13
2022-12-08T21:18:16.229Z,77.78
2022-12-08T21:20:43.432Z,77.43
2022-12-08T21:23:10.759Z,76.22
2022-12-08T21:25:41.930Z,80.57
2022-12-08T21:28:09.294Z,79.40
2022-12-08T21:30:36.054Z,76.53
2022-12-08T21:33:03.337Z,76.88
2022-12-08T21:35:30.318Z,78.50
2022-12-08T21:37:57.557Z,82.00
2022-12-08T21:40:24.468Z,81.80
2022-12-08T21:42:51.520Z,84.85
2022-12-08T21:45:19.435Z,86.72
2022-12-08T21:47:47.264Z,85.70
2022-12-08T21:50:14.329Z,78.72
2022-12-08T21:52:42.811Z,83.20
2022-12-08T21:55:10.504Z,91.05
2022-12-08T21:57:37.715Z,85.13
2022-12-08T22:00:06.773Z,91.65
2022-12-08T22:02:34.193Z,91.22
2022-12-08T22:05:01.234Z,88.57
2022-12-08T22:07:28.410Z,97.15
2022-12-08T22:09:55.412Z,95.95
2022-12-08T22:12:22.974Z,93.70
2022-12-08T22:14:51.034Z,98.05
2022-12-08T22:17:18.714Z,94.38
2022-12-08T22:19:46.044Z,95.35
2022-12-08T22:22:13.264Z,90.05
2022-12-08T22:24:40.141Z,95.82
2022-12-08T22:27:07.542Z,99.72
2022-12-08T22:29:34.373Z,100.35
2022-12-08T22:32:01.626Z,93.43
2022-12-08T22:34:28.451Z,94.65
2022-12-08T22:36:55.486Z,99.47
2022-12-08T22:39:22.385Z,104.10
2022-12-08T22:41:49.431Z,104.75
2022-12-08T22:44:16.488Z,107.53
2022-12-08T22:46:43.653Z,108.90
2022-12-08T22:49:10.582Z,107.30
2022-12-08T22:51:37.835Z,103.97
2022-12-08T22:54:05.600Z,103.07
2022-12-08T22:56:32.711Z,105.45
2022-12-08T22:58:59.542Z,111.47
2022-12-08T23:01:31.207Z,105.90
2022-12-08T23:03:58.707Z,105.70
2022-12-08T23:06:26.431Z,104.80
2022-12-08T23:08:53.565Z,107.63
2022-12-08T23:11:21.003Z,107.43
2022-12-08T23:13:48.222Z,97.95
2022-12-08T23:16:15.630Z,104.25
2022-12-08T23:19:20.497Z,102.38
2022-12-08T23:21:47.612Z,97.20
2022-12-08T23:24:14.574Z,93.00
2022-12-08T23:26:43.325Z,94.15
2022-12-08T23:31:54.819Z,86.85
2022-12-08T23:34:21.868Z,86.50
2022-12-08T23:36:49.081Z,84.30
2022-12-08T23:39:16.048Z,79.00
2022-12-08T23:41:43.214Z,81.35
2022-12-08T23:44:12.351Z,83.07
2022-12-08T23:46:39.817Z,77.22
2022-12-08T23:49:06.733Z,72.38
2022-12-08T23:51:33.855Z,68.85
2022-12-08T23:54:00.798Z,74.43
2022-12-08T23:56:30.504Z,69.45
2022-12-08T23:58:57.676Z,66.80
